createdAt,value
2019-03-31T00:03:27.927Z,99.90
2019-03-31T00:08:29.387Z,99.90
2019-03-31T00:13:31.357Z,99.90
2019-03-31T00:18:32.826Z,99.90
2019-03-31T00:23:34.700Z,99.90
2019-03-31T00:28:36.182Z,99.90
2019-03-31T00:33:38.043Z,99.90
2019-03-31T00:38:39.574Z,99.90
2019-03-31T00:43:41.052Z,99.90
2019-03-31T00:48:42.612Z,99.90
2019-03-31T00:53:44.180Z,99.90
2019-03-31T00:58:45.645Z,99.90
2019-03-31T01:03:47.386Z,99.90
2019-03-31T01:08:49.661Z,99.90
2019-03-31T01:13:51.723Z,99.90
2019-03-31T01:18:53.259Z,99.90
2019-03-31T01:23:54.896Z,99.90
2019-03-31T01:28:57.299Z,99.90
2019-03-31T01:33:58.816Z,99.90
2019-03-31T01:39:00.727Z,99.90
2019-03-31T01:44:02.367Z,99.90
2019-03-31T01:49:04.748Z,99.90
2019-03-31T01:54:06.227Z,99.90
2019-03-31T01:59:07.804Z,99.90
2019-03-31T02:04:09.479Z,99.90
2019-03-31T02:09:11.359Z,99.90
2019-03-31T02:14:12.945Z,99.90
2019-03-31T02:19:14.516Z,99.90
2019-03-31T02:24:16.069Z,99.90
2019-03-31T02:29:17.562Z,99.90
2019-03-31T02:34:19.061Z,99.90
2019-03-31T02:39:20.701Z,99.90
2019-03-31T02:44:22.246Z,99.90
2019-03-31T02:49:23.805Z,99.90
2019-03-31T02:54:25.753Z,99.90
2019-03-31T02:59:30.938Z,99.90
2019-03-31T03:04:34.818Z,99.90
2019-03-31T03:09:38.285Z,99.90
2019-03-31T03:14:41.874Z,99.90
2019-03-31T03:19:43.403Z,99.90
2019-03-31T03:24:44.953Z,99.90
2019-03-31T03:29:46.439Z,99.90
2019-03-31T03:34:48.270Z,99.90
2019-03-31T03:39:50.317Z,99.90
2019-03-31T03:44:52.194Z,99.90
2019-03-31T03:49:53.775Z,99.90
2019-03-31T03:54:55.268Z,99.90
2019-03-31T03:59:56.748Z,99.90
2019-03-31T04:04:58.240Z,99.90
2019-03-31T04:09:59.764Z,99.90
2019-03-31T04:15:01.673Z,99.90
2019-03-31T04:20:04.634Z,99.90
2019-03-31T04:25:06.121Z,99.90
2019-03-31T04:30:07.893Z,99.90
2019-03-31T04:35:09.416Z,99.90
2019-03-31T04:40:11.431Z,99.90
2019-03-31T04:45:12.923Z,99.90
2019-03-31T04:50:14.641Z,99.90
2019-03-31T04:55:16.141Z,99.90
2019-03-31T05:00:17.979Z,99.90
2019-03-31T05:05:19.751Z,99.90
2019-03-31T05:10:21.624Z,99.90
2019-03-31T05:15:23.112Z,99.90
2019-03-31T05:20:24.600Z,99.90
2019-03-31T05:25:26.152Z,99.90
2019-03-31T05:30:28.006Z,99.90
2019-03-31T05:35:29.496Z,99.90
2019-03-31T05:40:31.126Z,99.90
2019-03-31T05:45:32.703Z,99.90
2019-03-31T05:50:34.186Z,99.90
2019-03-31T05:55:35.681Z,99.90
2019-03-31T06:00:39.882Z,99.90
2019-03-31T06:05:41.348Z,99.90
2019-03-31T06:10:43.217Z,99.90
2019-03-31T06:15:44.696Z,99.90
2019-03-31T06:20:46.098Z,99.90
2019-03-31T06:25:47.926Z,99.90
2019-03-31T06:30:49.605Z,99.90
2019-03-31T06:35:51.479Z,99.90
2019-03-31T06:40:55.068Z,99.90
2019-03-31T06:45:56.527Z,99.90
2019-03-31T06:50:58.720Z,99.90
2019-03-31T06:56:00.548Z,99.90
2019-03-31T07:01:02.401Z,99.90
2019-03-31T07:06:04.403Z,99.90
2019-03-31T07:11:05.873Z,99.90
2019-03-31T07:16:07.915Z,99.90
2019-03-31T07:21:09.905Z,99.90
2019-03-31T07:26:11.457Z,99.90
2019-03-31T07:31:13.535Z,99.90
2019-03-31T07:36:15.205Z,99.90
2019-03-31T07:41:16.827Z,99.90
2019-03-31T07:46:18.754Z,99.90
2019-03-31T07:51:20.339Z,99.90
2019-03-31T07:56:21.818Z,99.90
2019-03-31T08:01:23.755Z,99.90
2019-03-31T08:06:25.252Z,99.90
2019-03-31T08:11:26.747Z,99.90
2019-03-31T08:16:28.585Z,99.90
2019-03-31T08:21:30.108Z,99.90
2019-03-31T08:26:31.753Z,99.90
2019-03-31T08:31:33.596Z,99.90
2019-03-31T08:36:35.370Z,99.90
2019-03-31T08:41:37.482Z,99.90
2019-03-31T08:46:39.330Z,99.90
2019-03-31T08:51:41.573Z,99.90
2019-03-31T08:56:43.264Z,99.90
2019-03-31T09:01:45.293Z,99.90
2019-03-31T09:06:46.882Z,99.90
2019-03-31T09:11:48.654Z,99.90
2019-03-31T09:16:50.478Z,99.90
2019-03-31T09:21:52.263Z,99.90
2019-03-31T09:26:53.988Z,99.90
2019-03-31T09:31:55.548Z,99.90
2019-03-31T09:36:57.116Z,99.90
2019-03-31T09:41:58.634Z,99.90
2019-03-31T09:47:00.109Z,99.90
2019-03-31T09:52:01.607Z,99.90
2019-03-31T09:57:04.343Z,99.90
2019-03-31T10:02:05.912Z,99.90
2019-03-31T10:07:07.471Z,99.90
2019-03-31T10:12:09.003Z,99.90
2019-03-31T10:17:10.469Z,99.90
2019-03-31T10:22:12.361Z,99.90
2019-03-31T10:27:13.845Z,99.90
2019-03-31T10:32:15.795Z,99.90
2019-03-31T10:37:17.728Z,99.90
2019-03-31T10:42:19.194Z,99.90
2019-03-31T10:47:21.068Z,99.90
2019-03-31T10:52:22.536Z,99.90
2019-03-31T10:57:24.004Z,99.90
2019-03-31T11:02:25.679Z,99.90
2019-03-31T11:07:27.164Z,99.90
2019-03-31T11:12:28.869Z,99.90
2019-03-31T11:17:30.329Z,99.90
2019-03-31T11:22:40.915Z,99.90
2019-03-31T11:27:43.962Z,99.90
2019-03-31T11:32:46.042Z,99.90
2019-03-31T11:37:47.597Z,99.90
2019-03-31T11:42:49.111Z,99.90
2019-03-31T11:47:50.958Z,99.90
2019-03-31T11:52:52.427Z,99.90
2019-03-31T11:57:53.975Z,99.90
2019-03-31T12:02:55.685Z,99.90
2019-03-31T12:07:57.164Z,99.90
2019-03-31T12:12:59.102Z,99.90
2019-03-31T12:18:00.624Z,99.90
2019-03-31T12:23:02.449Z,99.90
2019-03-31T12:28:03.930Z,99.90
2019-03-31T12:33:05.524Z,99.90
2019-03-31T12:38:07.149Z,99.90
2019-03-31T12:43:08.611Z,96.90
2019-03-31T12:48:10.508Z,95.70
2019-03-31T12:53:12.418Z,97.60
2019-03-31T12:58:13.889Z,99.90
2019-03-31T13:03:16.214Z,99.90
2019-03-31T13:08:18.511Z,97.10
2019-03-31T13:13:19.977Z,93.60
2019-03-31T13:18:21.486Z,93.90
2019-03-31T13:23:22.943Z,94.20
2019-03-31T13:28:24.399Z,88.00
2019-03-31T13:33:26.050Z,87.40
2019-03-31T13:38:28.023Z,87.60
2019-03-31T13:43:29.503Z,89.30
2019-03-31T13:48:51.226Z,91.20
2019-03-31T13:53:52.896Z,88.50
2019-03-31T13:58:54.598Z,91.10
2019-03-31T14:03:56.112Z,88.30
2019-03-31T14:08:57.583Z,85.90
2019-03-31T14:13:59.349Z,88.60
2019-03-31T14:19:00.810Z,87.60
2019-03-31T14:24:03.043Z,87.20
2019-03-31T14:29:04.600Z,90.00
2019-03-31T14:34:06.060Z,86.70
2019-03-31T14:39:08.405Z,83.30
2019-03-31T14:44:09.848Z,80.70
2019-03-31T14:49:11.326Z,76.70
2019-03-31T14:54:12.807Z,77.50
2019-03-31T14:59:14.747Z,74.70
2019-03-31T15:04:16.238Z,77.60
2019-03-31T15:09:18.025Z,79.80
2019-03-31T15:14:19.571Z,79.90
2019-03-31T15:19:21.414Z,79.80
2019-03-31T15:24:22.803Z,80.50
2019-03-31T15:29:24.515Z,84.70
2019-03-31T15:34:25.978Z,84.90
2019-03-31T15:39:27.538Z,85.80
2019-03-31T15:44:29.013Z,86.90
2019-03-31T15:49:30.464Z,85.20
2019-03-31T15:54:31.943Z,85.60
2019-03-31T15:59:33.491Z,86.10
2019-03-31T16:04:35.334Z,89.00
2019-03-31T16:09:36.831Z,85.80
2019-03-31T16:14:38.398Z,89.30
2019-03-31T16:19:39.878Z,88.10
2019-03-31T16:24:43.337Z,90.20
2019-03-31T16:29:44.846Z,90.70
2019-03-31T16:34:46.395Z,88.80
2019-03-31T16:39:48.209Z,88.20
2019-03-31T16:44:58.151Z,85.70
2019-03-31T16:49:53.168Z,86.20
2019-03-31T16:54:54.866Z,90.20
2019-03-31T16:59:56.335Z,89.60
2019-03-31T17:04:57.832Z,85.80
2019-03-31T17:09:59.357Z,90.10
2019-03-31T17:15:00.955Z,91.00
2019-03-31T17:20:05.799Z,93.10
2019-03-31T17:25:07.862Z,94.00
2019-03-31T17:30:10.472Z,94.80
2019-03-31T17:35:12.434Z,96.60
2019-03-31T17:40:14.362Z,99.10
2019-03-31T17:45:17.369Z,99.90
2019-03-31T17:50:19.028Z,99.90
2019-03-31T17:55:20.535Z,99.90
2019-03-31T18:00:22.214Z,99.90
2019-03-31T18:05:23.936Z,99.90
2019-03-31T18:10:25.605Z,99.90
2019-03-31T18:15:27.126Z,99.90
2019-03-31T18:20:28.845Z,99.90
2019-03-31T18:25:30.671Z,99.90
2019-03-31T18:30:32.575Z,99.90
2019-03-31T18:35:34.902Z,99.90
2019-03-31T18:40:36.907Z,99.90
2019-03-31T18:45:38.796Z,99.90
2019-03-31T18:50:40.738Z,99.90
2019-03-31T18:55:44.493Z,99.90
2019-03-31T19:00:51.155Z,99.90
2019-03-31T19:05:54.587Z,99.90
2019-03-31T19:10:58.126Z,99.90
2019-03-31T19:16:17.990Z,99.90
2019-03-31T19:21:30.393Z,99.90
2019-03-31T19:26:48.750Z,99.90
2019-03-31T19:31:55.309Z,99.90
2019-03-31T19:36:58.768Z,99.90
2019-03-31T19:42:04.839Z,99.90
2019-03-31T19:47:21.544Z,99.90
2019-03-31T19:52:30.855Z,99.90
2019-03-31T19:57:47.753Z,99.90
2019-03-31T20:02:54.426Z,99.90
2019-03-31T20:07:57.983Z,99.90
2019-03-31T20:13:11.355Z,99.90
2019-03-31T20:18:31.600Z,99.90
2019-03-31T20:23:42.411Z,99.90
2019-03-31T20:29:04.075Z,99.90
2019-03-31T20:34:16.319Z,99.90
2019-03-31T20:39:20.708Z,99.90
2019-03-31T20:44:22.242Z,99.90
2019-03-31T20:49:23.706Z,99.90
2019-03-31T20:54:25.584Z,99.90
2019-03-31T20:59:27.561Z,99.90
2019-03-31T21:04:29.440Z,99.90
2019-03-31T21:09:44.182Z,99.90
2019-03-31T21:14:34.633Z,99.90
2019-03-31T21:19:36.097Z,99.90
2019-03-31T21:24:37.729Z,99.90
2019-03-31T21:29:39.633Z,99.90
2019-03-31T21:34:41.510Z,99.90
2019-03-31T21:39:43.101Z,99.90
2019-03-31T21:44:44.567Z,99.90
2019-03-31T21:49:46.101Z,99.90
2019-03-31T21:54:47.619Z,99.90
2019-03-31T21:59:49.482Z,99.90
2019-03-31T22:04:50.946Z,99.90
2019-03-31T22:09:52.403Z,99.90
2019-03-31T22:14:53.929Z,99.90
2019-03-31T22:19:55.440Z,99.90
2019-03-31T22:24:56.923Z,99.90
2019-03-31T22:29:58.385Z,99.90
2019-03-31T22:35:00.473Z,99.90
2019-03-31T22:40:04.961Z,99.90
2019-03-31T22:45:06.914Z,99.90
2019-03-31T22:50:09.138Z,99.90
2019-03-31T22:55:11.326Z,99.90
2019-03-31T23:00:21.241Z,99.90
2019-03-31T23:05:22.729Z,99.90
2019-03-31T23:10:24.191Z,99.90
2019-03-31T23:15:25.710Z,99.90
2019-03-31T23:20:27.259Z,99.90
2019-03-31T23:25:30.150Z,99.90
2019-03-31T23:30:31.622Z,99.90
2019-03-31T23:35:33.091Z,99.90
2019-03-31T23:40:34.640Z,99.90
2019-03-31T23:45:36.124Z,99.90
2019-03-31T23:50:37.951Z,99.90
2019-03-31T23:55:39.653Z,99.90
